sensor_id;sensor_type;location;lat;lon;timestamp;P1;durP1;ratioP1;P2;durP2;ratioP2
76593;SDS011;65482;50.240;14.302;2023-08-06T00:02:20;9.15;;;6.45;;
76593;SDS011;65482;50.240;14.302;2023-08-06T00:04:45;8.80;;;6.10;;
76593;SDS011;65482;50.240;14.302;2023-08-06T00:07:11;8.57;;;6.38;;
76593;SDS011;65482;50.240;14.302;2023-08-06T00:09:36;7.30;;;6.50;;
76593;SDS011;65482;50.240;14.302;2023-08-06T00:12:02;10.30;;;6.70;;
76593;SDS011;65482;50.240;14.302;2023-08-06T00:14:28;9.68;;;6.20;;
76593;SDS011;65482;50.240;14.302;2023-08-06T00:16:53;6.93;;;6.00;;
76593;SDS011;65482;50.240;14.302;2023-08-06T00:19:19;8.20;;;6.72;;
76593;SDS011;65482;50.240;14.302;2023-08-06T00:21:45;8.10;;;6.38;;
76593;SDS011;65482;50.240;14.302;2023-08-06T00:24:10;8.57;;;6.35;;
76593;SDS011;65482;50.240;14.302;2023-08-06T00:26:36;8.30;;;6.72;;
76593;SDS011;65482;50.240;14.302;2023-08-06T00:29:01;8.25;;;6.40;;
76593;SDS011;65482;50.240;14.302;2023-08-06T00:31:27;9.32;;;6.63;;
76593;SDS011;65482;50.240;14.302;2023-08-06T00:33:52;9.13;;;6.68;;
76593;SDS011;65482;50.240;14.302;2023-08-06T00:36:18;7.22;;;5.97;;
76593;SDS011;65482;50.240;14.302;2023-08-06T00:38:43;8.95;;;6.25;;
76593;SDS011;65482;50.240;14.302;2023-08-06T00:41:09;9.45;;;6.25;;
76593;SDS011;65482;50.240;14.302;2023-08-06T00:43:34;8.45;;;6.45;;
76593;SDS011;65482;50.240;14.302;2023-08-06T00:46:00;7.43;;;5.65;;
76593;SDS011;65482;50.240;14.302;2023-08-06T00:48:26;7.28;;;5.85;;
76593;SDS011;65482;50.240;14.302;2023-08-06T00:50:52;7.68;;;5.28;;
76593;SDS011;65482;50.240;14.302;2023-08-06T00:53:18;6.32;;;4.80;;
76593;SDS011;65482;50.240;14.302;2023-08-06T00:55:44;5.63;;;4.68;;
76593;SDS011;65482;50.240;14.302;2023-08-06T00:58:10;5.32;;;4.80;;
76593;SDS011;65482;50.240;14.302;2023-08-06T01:00:36;5.88;;;4.50;;
76593;SDS011;65482;50.240;14.302;2023-08-06T01:03:03;5.47;;;4.60;;
76593;SDS011;65482;50.240;14.302;2023-08-06T01:05:28;5.43;;;4.40;;
76593;SDS011;65482;50.240;14.302;2023-08-06T01:13:39;4.65;;;4.13;;
76593;SDS011;65482;50.240;14.302;2023-08-06T01:16:18;4.55;;;3.67;;
76593;SDS011;65482;50.240;14.302;2023-08-06T01:18:46;4.47;;;3.88;;
76593;SDS011;65482;50.240;14.302;2023-08-06T01:21:17;4.40;;;3.75;;
76593;SDS011;65482;50.240;14.302;2023-08-06T01:23:44;6.28;;;3.90;;
76593;SDS011;65482;50.240;14.302;2023-08-06T01:26:24;4.97;;;4.47;;
76593;SDS011;65482;50.240;14.302;2023-08-06T01:29:04;5.47;;;4.47;;
76593;SDS011;65482;50.240;14.302;2023-08-06T01:31:36;5.25;;;4.57;;
76593;SDS011;65482;50.240;14.302;2023-08-06T01:34:03;5.03;;;4.53;;
76593;SDS011;65482;50.240;14.302;2023-08-06T01:36:31;6.10;;;4.53;;
76593;SDS011;65482;50.240;14.302;2023-08-06T01:38:57;5.60;;;4.65;;
76593;SDS011;65482;50.240;14.302;2023-08-06T01:41:23;5.47;;;3.85;;
76593;SDS011;65482;50.240;14.302;2023-08-06T01:43:48;5.10;;;4.30;;
76593;SDS011;65482;50.240;14.302;2023-08-06T01:46:14;5.13;;;4.45;;
76593;SDS011;65482;50.240;14.302;2023-08-06T01:48:39;4.22;;;3.83;;
76593;SDS011;65482;50.240;14.302;2023-08-06T01:51:05;5.30;;;4.35;;
76593;SDS011;65482;50.240;14.302;2023-08-06T01:53:31;6.93;;;4.93;;
76593;SDS011;65482;50.240;14.302;2023-08-06T01:55:57;4.75;;;4.35;;
76593;SDS011;65482;50.240;14.302;2023-08-06T01:58:23;4.97;;;4.00;;
76593;SDS011;65482;50.240;14.302;2023-08-06T02:00:49;4.63;;;3.72;;
76593;SDS011;65482;50.240;14.302;2023-08-06T02:03:14;6.28;;;4.50;;
76593;SDS011;65482;50.240;14.302;2023-08-06T02:05:40;5.35;;;4.60;;
76593;SDS011;65482;50.240;14.302;2023-08-06T02:08:06;4.68;;;4.22;;
76593;SDS011;65482;50.240;14.302;2023-08-06T02:10:31;6.47;;;4.78;;
76593;SDS011;65482;50.240;14.302;2023-08-06T02:12:57;5.00;;;4.53;;
76593;SDS011;65482;50.240;14.302;2023-08-06T02:15:22;5.32;;;4.43;;
76593;SDS011;65482;50.240;14.302;2023-08-06T02:17:48;5.25;;;4.50;;
76593;SDS011;65482;50.240;14.302;2023-08-06T02:20:14;6.20;;;5.05;;
76593;SDS011;65482;50.240;14.302;2023-08-06T02:22:39;5.80;;;4.72;;
76593;SDS011;65482;50.240;14.302;2023-08-06T02:25:05;6.70;;;5.07;;
76593;SDS011;65482;50.240;14.302;2023-08-06T02:27:30;5.70;;;5.07;;
76593;SDS011;65482;50.240;14.302;2023-08-06T02:29:56;6.53;;;4.95;;
76593;SDS011;65482;50.240;14.302;2023-08-06T02:32:21;5.82;;;5.22;;
76593;SDS011;65482;50.240;14.302;2023-08-06T02:34:47;7.00;;;4.72;;
76593;SDS011;65482;50.240;14.302;2023-08-06T02:37:12;5.68;;;4.93;;
76593;SDS011;65482;50.240;14.302;2023-08-06T02:39:38;6.45;;;4.63;;
76593;SDS011;65482;50.240;14.302;2023-08-06T02:42:06;7.63;;;4.93;;
76593;SDS011;65482;50.240;14.302;2023-08-06T02:44:33;5.38;;;4.45;;
76593;SDS011;65482;50.240;14.302;2023-08-06T02:46:59;5.20;;;4.47;;
76593;SDS011;65482;50.240;14.302;2023-08-06T02:49:25;6.20;;;4.55;;
76593;SDS011;65482;50.240;14.302;2023-08-06T02:51:51;6.00;;;4.50;;
76593;SDS011;65482;50.240;14.302;2023-08-06T02:54:20;5.28;;;4.22;;
76593;SDS011;65482;50.240;14.302;2023-08-06T02:56:45;5.90;;;4.85;;
76593;SDS011;65482;50.240;14.302;2023-08-06T02:59:12;5.57;;;4.57;;
76593;SDS011;65482;50.240;14.302;2023-08-06T03:01:38;5.55;;;4.38;;
76593;SDS011;65482;50.240;14.302;2023-08-06T03:04:03;5.15;;;4.65;;
76593;SDS011;65482;50.240;14.302;2023-08-06T03:06:29;5.82;;;4.47;;
76593;SDS011;65482;50.240;14.302;2023-08-06T03:08:55;8.85;;;5.10;;
76593;SDS011;65482;50.240;14.302;2023-08-06T03:11:20;6.53;;;5.15;;
76593;SDS011;65482;50.240;14.302;2023-08-06T03:13:47;5.20;;;4.47;;
76593;SDS011;65482;50.240;14.302;2023-08-06T03:16:13;6.85;;;5.25;;
76593;SDS011;65482;50.240;14.302;2023-08-06T03:18:38;6.97;;;5.68;;
76593;SDS011;65482;50.240;14.302;2023-08-06T03:21:04;6.47;;;5.28;;
76593;SDS011;65482;50.240;14.302;2023-08-06T03:23:30;6.72;;;5.32;;
76593;SDS011;65482;50.240;14.302;2023-08-06T03:25:55;5.45;;;4.88;;
76593;SDS011;65482;50.240;14.302;2023-08-06T03:28:21;5.97;;;5.38;;
76593;SDS011;65482;50.240;14.302;2023-08-06T03:30:47;8.10;;;5.32;;
76593;SDS011;65482;50.240;14.302;2023-08-06T03:33:13;5.80;;;5.20;;
76593;SDS011;65482;50.240;14.302;2023-08-06T03:35:39;5.63;;;5.07;;
76593;SDS011;65482;50.240;14.302;2023-08-06T03:38:05;5.35;;;4.60;;
76593;SDS011;65482;50.240;14.302;2023-08-06T03:40:30;7.13;;;4.57;;
76593;SDS011;65482;50.240;14.302;2023-08-06T03:42:56;6.15;;;5.32;;
76593;SDS011;65482;50.240;14.302;2023-08-06T03:45:21;6.03;;;4.70;;
76593;SDS011;65482;50.240;14.302;2023-08-06T03:47:47;7.28;;;5.00;;
76593;SDS011;65482;50.240;14.302;2023-08-06T03:50:12;5.07;;;4.47;;
76593;SDS011;65482;50.240;14.302;2023-08-06T03:52:38;6.97;;;4.93;;
76593;SDS011;65482;50.240;14.302;2023-08-06T03:55:03;5.45;;;4.70;;
76593;SDS011;65482;50.240;14.302;2023-08-06T03:57:29;5.15;;;4.35;;
76593;SDS011;65482;50.240;14.302;2023-08-06T03:59:55;6.38;;;4.53;;
76593;SDS011;65482;50.240;14.302;2023-08-06T04:02:20;6.28;;;4.80;;
76593;SDS011;65482;50.240;14.302;2023-08-06T04:04:46;7.55;;;4.85;;
76593;SDS011;65482;50.240;14.302;2023-08-06T04:07:11;5.13;;;4.63;;
76593;SDS011;65482;50.240;14.302;2023-08-06T04:12:29;4.82;;;4.07;;
76593;SDS011;65482;50.240;14.302;2023-08-06T04:14:56;6.97;;;4.32;;
76593;SDS011;65482;50.240;14.302;2023-08-06T04:17:23;5.32;;;4.30;;
76593;SDS011;65482;50.240;14.302;2023-08-06T04:19:53;4.43;;;3.92;;
76593;SDS011;65482;50.240;14.302;2023-08-06T04:22:20;6.50;;;4.65;;
76593;SDS011;65482;50.240;14.302;2023-08-06T04:24:47;5.88;;;4.50;;
76593;SDS011;65482;50.240;14.302;2023-08-06T04:27:13;5.60;;;4.63;;
76593;SDS011;65482;50.240;14.302;2023-08-06T04:29:39;5.40;;;4.63;;
76593;SDS011;65482;50.240;14.302;2023-08-06T04:32:06;6.72;;;4.93;;
76593;SDS011;65482;50.240;14.302;2023-08-06T04:34:33;6.82;;;5.03;;
76593;SDS011;65482;50.240;14.302;2023-08-06T04:37:00;7.18;;;5.35;;
76593;SDS011;65482;50.240;14.302;2023-08-06T04:39:26;8.00;;;5.75;;
76593;SDS011;65482;50.240;14.302;2023-08-06T04:41:52;8.18;;;6.07;;
76593;SDS011;65482;50.240;14.302;2023-08-06T04:44:17;8.35;;;6.35;;
76593;SDS011;65482;50.240;14.302;2023-08-06T04:46:43;8.60;;;6.80;;
76593;SDS011;65482;50.240;14.302;2023-08-06T04:49:08;8.88;;;6.68;;
76593;SDS011;65482;50.240;14.302;2023-08-06T04:51:34;9.60;;;6.82;;
76593;SDS011;65482;50.240;14.302;2023-08-06T04:53:59;8.93;;;6.88;;
76593;SDS011;65482;50.240;14.302;2023-08-06T04:56:25;9.27;;;7.32;;
76593;SDS011;65482;50.240;14.302;2023-08-06T04:58:50;9.45;;;7.03;;
76593;SDS011;65482;50.240;14.302;2023-08-06T05:01:16;9.73;;;8.15;;
76593;SDS011;65482;50.240;14.302;2023-08-06T05:03:42;14.77;;;9.23;;
76593;SDS011;65482;50.240;14.302;2023-08-06T05:06:07;10.90;;;7.65;;
76593;SDS011;65482;50.240;14.302;2023-08-06T05:08:33;10.32;;;8.07;;
76593;SDS011;65482;50.240;14.302;2023-08-06T05:10:59;13.57;;;8.07;;
76593;SDS011;65482;50.240;14.302;2023-08-06T05:13:24;9.20;;;7.38;;
76593;SDS011;65482;50.240;14.302;2023-08-06T05:15:50;8.10;;;7.13;;
76593;SDS011;65482;50.240;14.302;2023-08-06T05:18:18;8.93;;;7.05;;
76593;SDS011;65482;50.240;14.302;2023-08-06T05:20:44;9.43;;;6.70;;
76593;SDS011;65482;50.240;14.302;2023-08-06T05:23:10;8.70;;;6.60;;
76593;SDS011;65482;50.240;14.302;2023-08-06T05:25:35;8.45;;;6.82;;
76593;SDS011;65482;50.240;14.302;2023-08-06T05:28:01;8.07;;;6.22;;
76593;SDS011;65482;50.240;14.302;2023-08-06T05:30:28;8.02;;;6.55;;
76593;SDS011;65482;50.240;14.302;2023-08-06T05:32:53;7.80;;;5.30;;
76593;SDS011;65482;50.240;14.302;2023-08-06T05:35:21;6.35;;;5.32;;
76593;SDS011;65482;50.240;14.302;2023-08-06T05:37:47;8.13;;;5.10;;
76593;SDS011;65482;50.240;14.302;2023-08-06T05:40:13;5.60;;;4.82;;
76593;SDS011;65482;50.240;14.302;2023-08-06T05:42:39;6.32;;;4.93;;
76593;SDS011;65482;50.240;14.302;2023-08-06T05:45:06;5.15;;;4.50;;
76593;SDS011;65482;50.240;14.302;2023-08-06T05:47:31;5.75;;;4.90;;
76593;SDS011;65482;50.240;14.302;2023-08-06T05:49:57;5.63;;;4.03;;
76593;SDS011;65482;50.240;14.302;2023-08-06T05:52:23;7.20;;;3.95;;
76593;SDS011;65482;50.240;14.302;2023-08-06T05:54:48;4.45;;;3.70;;
76593;SDS011;65482;50.240;14.302;2023-08-06T05:57:14;4.22;;;3.40;;
76593;SDS011;65482;50.240;14.302;2023-08-06T05:59:40;3.53;;;2.92;;
76593;SDS011;65482;50.240;14.302;2023-08-06T06:02:06;3.88;;;3.47;;
76593;SDS011;65482;50.240;14.302;2023-08-06T06:04:31;5.38;;;3.33;;
76593;SDS011;65482;50.240;14.302;2023-08-06T06:06:57;3.97;;;3.03;;
76593;SDS011;65482;50.240;14.302;2023-08-06T06:09:23;3.20;;;2.90;;
76593;SDS011;65482;50.240;14.302;2023-08-06T06:11:48;6.65;;;2.95;;
76593;SDS011;65482;50.240;14.302;2023-08-06T06:14:18;3.05;;;2.78;;
76593;SDS011;65482;50.240;14.302;2023-08-06T06:16:44;3.20;;;2.90;;
76593;SDS011;65482;50.240;14.302;2023-08-06T06:19:11;3.30;;;3.00;;
76593;SDS011;65482;50.240;14.302;2023-08-06T06:21:36;4.03;;;3.25;;
76593;SDS011;65482;50.240;14.302;2023-08-06T06:24:05;5.30;;;3.05;;
76593;SDS011;65482;50.240;14.302;2023-08-06T06:26:32;4.72;;;2.92;;
76593;SDS011;65482;50.240;14.302;2023-08-06T06:28:57;4.85;;;3.20;;
76593;SDS011;65482;50.240;14.302;2023-08-06T06:31:23;4.20;;;2.78;;
76593;SDS011;65482;50.240;14.302;2023-08-06T06:33:49;4.38;;;3.00;;
76593;SDS011;65482;50.240;14.302;2023-08-06T06:36:14;3.08;;;2.20;;
76593;SDS011;65482;50.240;14.302;2023-08-06T06:38:40;3.58;;;2.55;;
76593;SDS011;65482;50.240;14.302;2023-08-06T06:41:06;4.03;;;2.70;;
76593;SDS011;65482;50.240;14.302;2023-08-06T06:43:32;3.22;;;2.45;;
76593;SDS011;65482;50.240;14.302;2023-08-06T06:45:59;3.47;;;2.65;;
76593;SDS011;65482;50.240;14.302;2023-08-06T06:48:26;3.75;;;2.60;;
76593;SDS011;65482;50.240;14.302;2023-08-06T06:50:52;4.13;;;2.88;;
76593;SDS011;65482;50.240;14.302;2023-08-06T06:53:18;3.35;;;2.83;;
76593;SDS011;65482;50.240;14.302;2023-08-06T06:55:43;4.50;;;3.30;;
76593;SDS011;65482;50.240;14.302;2023-08-06T06:58:10;5.50;;;3.55;;
76593;SDS011;65482;50.240;14.302;2023-08-06T07:00:36;5.30;;;3.60;;
76593;SDS011;65482;50.240;14.302;2023-08-06T07:03:02;5.32;;;3.70;;
76593;SDS011;65482;50.240;14.302;2023-08-06T07:05:28;4.68;;;4.10;;
76593;SDS011;65482;50.240;14.302;2023-08-06T07:07:54;5.10;;;4.38;;
76593;SDS011;65482;50.240;14.302;2023-08-06T07:10:19;5.60;;;4.47;;
76593;SDS011;65482;50.240;14.302;2023-08-06T07:12:45;6.15;;;4.18;;
76593;SDS011;65482;50.240;14.302;2023-08-06T07:15:11;6.78;;;4.63;;
76593;SDS011;65482;50.240;14.302;2023-08-06T07:17:37;7.38;;;4.78;;
76593;SDS011;65482;50.240;14.302;2023-08-06T07:20:03;6.55;;;4.72;;
76593;SDS011;65482;50.240;14.302;2023-08-06T07:22:29;6.10;;;4.50;;
76593;SDS011;65482;50.240;14.302;2023-08-06T07:24:55;5.90;;;4.80;;
76593;SDS011;65482;50.240;14.302;2023-08-06T07:27:20;7.68;;;4.70;;
76593;SDS011;65482;50.240;14.302;2023-08-06T07:29:46;6.80;;;4.85;;
76593;SDS011;65482;50.240;14.302;2023-08-06T07:32:13;7.03;;;4.80;;
76593;SDS011;65482;50.240;14.302;2023-08-06T07:34:39;7.30;;;5.15;;
76593;SDS011;65482;50.240;14.302;2023-08-06T07:37:04;7.18;;;5.28;;
76593;SDS011;65482;50.240;14.302;2023-08-06T07:39:30;6.40;;;4.90;;
76593;SDS011;65482;50.240;14.302;2023-08-06T07:41:56;8.45;;;5.30;;
76593;SDS011;65482;50.240;14.302;2023-08-06T07:44:22;5.30;;;4.80;;
76593;SDS011;65482;50.240;14.302;2023-08-06T07:46:47;6.78;;;5.15;;
76593;SDS011;65482;50.240;14.302;2023-08-06T07:49:13;7.78;;;5.68;;
76593;SDS011;65482;50.240;14.302;2023-08-06T07:51:38;6.70;;;5.40;;
76593;SDS011;65482;50.240;14.302;2023-08-06T07:54:04;6.10;;;5.20;;
76593;SDS011;65482;50.240;14.302;2023-08-06T07:56:30;6.88;;;5.90;;
76593;SDS011;65482;50.240;14.302;2023-08-06T07:58:56;6.82;;;5.70;;
76593;SDS011;65482;50.240;14.302;2023-08-06T08:01:22;8.00;;;5.90;;
76593;SDS011;65482;50.240;14.302;2023-08-06T08:03:47;6.40;;;5.45;;
76593;SDS011;65482;50.240;14.302;2023-08-06T08:06:13;8.23;;;5.57;;
76593;SDS011;65482;50.240;14.302;2023-08-06T08:08:38;6.10;;;5.47;;
76593;SDS011;65482;50.240;14.302;2023-08-06T08:11:04;7.97;;;5.85;;
76593;SDS011;65482;50.240;14.302;2023-08-06T08:13:30;6.68;;;5.70;;
76593;SDS011;65482;50.240;14.302;2023-08-06T08:16:00;7.10;;;6.00;;
76593;SDS011;65482;50.240;14.302;2023-08-06T08:18:26;7.18;;;5.50;;
76593;SDS011;65482;50.240;14.302;2023-08-06T08:20:52;5.80;;;5.30;;
76593;SDS011;65482;50.240;14.302;2023-08-06T08:23:17;7.30;;;5.25;;
76593;SDS011;65482;50.240;14.302;2023-08-06T08:25:43;6.60;;;5.30;;
76593;SDS011;65482;50.240;14.302;2023-08-06T08:28:09;6.30;;;5.70;;
76593;SDS011;65482;50.240;14.302;2023-08-06T08:30:34;5.60;;;5.10;;
76593;SDS011;65482;50.240;14.302;2023-08-06T08:33:00;6.30;;;5.70;;
76593;SDS011;65482;50.240;14.302;2023-08-06T08:35:26;5.15;;;4.65;;
76593;SDS011;65482;50.240;14.302;2023-08-06T08:37:51;6.68;;;4.80;;
76593;SDS011;65482;50.240;14.302;2023-08-06T08:40:17;6.22;;;4.30;;
76593;SDS011;65482;50.240;14.302;2023-08-06T08:42:43;4.60;;;3.75;;
76593;SDS011;65482;50.240;14.302;2023-08-06T08:45:15;4.18;;;3.60;;
76593;SDS011;65482;50.240;14.302;2023-08-06T08:47:41;3.60;;;3.30;;
76593;SDS011;65482;50.240;14.302;2023-08-06T08:50:13;4.07;;;3.45;;
76593;SDS011;65482;50.240;14.302;2023-08-06T08:52:39;4.70;;;3.13;;
76593;SDS011;65482;50.240;14.302;2023-08-06T08:55:08;3.40;;;3.10;;
76593;SDS011;65482;50.240;14.302;2023-08-06T08:57:34;3.83;;;2.70;;
76593;SDS011;65482;50.240;14.302;2023-08-06T09:00:00;3.30;;;3.00;;
76593;SDS011;65482;50.240;14.302;2023-08-06T09:02:26;4.88;;;2.90;;
76593;SDS011;65482;50.240;14.302;2023-08-06T09:04:55;3.25;;;2.80;;
76593;SDS011;65482;50.240;14.302;2023-08-06T09:07:25;3.42;;;3.00;;
76593;SDS011;65482;50.240;14.302;2023-08-06T09:09:52;3.38;;;2.80;;
76593;SDS011;65482;50.240;14.302;2023-08-06T09:12:18;2.83;;;2.63;;
76593;SDS011;65482;50.240;14.302;2023-08-06T09:14:44;2.92;;;2.67;;
76593;SDS011;65482;50.240;14.302;2023-08-06T09:17:09;2.95;;;2.67;;
76593;SDS011;65482;50.240;14.302;2023-08-06T09:19:41;4.07;;;2.40;;
76593;SDS011;65482;50.240;14.302;2023-08-06T09:22:11;2.80;;;2.60;;
76593;SDS011;65482;50.240;14.302;2023-08-06T09:24:39;3.72;;;2.65;;
76593;SDS011;65482;50.240;14.302;2023-08-06T09:27:10;4.63;;;2.90;;
76593;SDS011;65482;50.240;14.302;2023-08-06T09:29:40;4.13;;;2.78;;
76593;SDS011;65482;50.240;14.302;2023-08-06T09:32:07;2.72;;;2.53;;
76593;SDS011;65482;50.240;14.302;2023-08-06T09:34:33;3.00;;;2.70;;
76593;SDS011;65482;50.240;14.302;2023-08-06T09:36:58;2.83;;;2.58;;
76593;SDS011;65482;50.240;14.302;2023-08-06T09:39:27;3.65;;;2.67;;
76593;SDS011;65482;50.240;14.302;2023-08-06T09:41:55;3.45;;;2.75;;
76593;SDS011;65482;50.240;14.302;2023-08-06T09:44:22;2.60;;;2.40;;
76593;SDS011;65482;50.240;14.302;2023-08-06T09:46:51;3.47;;;2.70;;
76593;SDS011;65482;50.240;14.302;2023-08-06T09:49:18;3.42;;;2.60;;
76593;SDS011;65482;50.240;14.302;2023-08-06T09:51:45;3.97;;;3.03;;
76593;SDS011;65482;50.240;14.302;2023-08-06T09:54:12;3.38;;;2.67;;
76593;SDS011;65482;50.240;14.302;2023-08-06T09:56:40;2.80;;;2.60;;
76593;SDS011;65482;50.240;14.302;2023-08-06T09:59:07;2.83;;;2.40;;
76593;SDS011;65482;50.240;14.302;2023-08-06T10:01:34;3.13;;;2.85;;
76593;SDS011;65482;50.240;14.302;2023-08-06T10:04:01;3.30;;;2.42;;
76593;SDS011;65482;50.240;14.302;2023-08-06T10:06:28;2.70;;;2.50;;
76593;SDS011;65482;50.240;14.302;2023-08-06T10:08:54;2.60;;;2.40;;
76593;SDS011;65482;50.240;14.302;2023-08-06T10:11:24;2.50;;;2.28;;
76593;SDS011;65482;50.240;14.302;2023-08-06T10:13:53;3.22;;;2.50;;
76593;SDS011;65482;50.240;14.302;2023-08-06T10:16:23;4.22;;;2.50;;
76593;SDS011;65482;50.240;14.302;2023-08-06T10:18:50;4.78;;;2.65;;
76593;SDS011;65482;50.240;14.302;2023-08-06T10:21:17;2.47;;;2.28;;
76593;SDS011;65482;50.240;14.302;2023-08-06T10:23:43;2.60;;;2.40;;
76593;SDS011;65482;50.240;14.302;2023-08-06T10:26:09;3.17;;;2.35;;
76593;SDS011;65482;50.240;14.302;2023-08-06T10:28:36;3.13;;;2.15;;
76593;SDS011;65482;50.240;14.302;2023-08-06T10:31:02;2.60;;;2.40;;
76593;SDS011;65482;50.240;14.302;2023-08-06T10:33:42;2.42;;;2.10;;
76593;SDS011;65482;50.240;14.302;2023-08-06T10:36:11;2.40;;;2.20;;
76593;SDS011;65482;50.240;14.302;2023-08-06T10:38:45;2.65;;;2.08;;
76593;SDS011;65482;50.240;14.302;2023-08-06T10:41:16;3.03;;;2.30;;
76593;SDS011;65482;50.240;14.302;2023-08-06T10:43:48;2.95;;;2.10;;
76593;SDS011;65482;50.240;14.302;2023-08-06T10:46:28;2.10;;;1.90;;
76593;SDS011;65482;50.240;14.302;2023-08-06T10:48:54;2.83;;;2.08;;
76593;SDS011;65482;50.240;14.302;2023-08-06T10:51:20;3.13;;;2.50;;
76593;SDS011;65482;50.240;14.302;2023-08-06T10:53:46;2.30;;;2.10;;
76593;SDS011;65482;50.240;14.302;2023-08-06T10:56:13;2.40;;;2.20;;
76593;SDS011;65482;50.240;14.302;2023-08-06T10:58:40;3.35;;;2.05;;
76593;SDS011;65482;50.240;14.302;2023-08-06T11:01:06;2.28;;;2.05;;
76593;SDS011;65482;50.240;14.302;2023-08-06T11:03:35;2.50;;;2.00;;
76593;SDS011;65482;50.240;14.302;2023-08-06T11:06:01;3.40;;;1.90;;
76593;SDS011;65482;50.240;14.302;2023-08-06T11:08:29;4.32;;;1.70;;
76593;SDS011;65482;50.240;14.302;2023-08-06T11:11:11;1.58;;;1.48;;
76593;SDS011;65482;50.240;14.302;2023-08-06T11:13:48;3.17;;;1.77;;
76593;SDS011;65482;50.240;14.302;2023-08-06T11:16:14;2.45;;;2.22;;
76593;SDS011;65482;50.240;14.302;2023-08-06T11:18:42;1.58;;;1.48;;
76593;SDS011;65482;50.240;14.302;2023-08-06T11:21:07;2.20;;;1.88;;
76593;SDS011;65482;50.240;14.302;2023-08-06T11:23:34;1.83;;;1.67;;
76593;SDS011;65482;50.240;14.302;2023-08-06T11:26:00;2.65;;;1.70;;
76593;SDS011;65482;50.240;14.302;2023-08-06T11:28:26;2.25;;;1.80;;
76593;SDS011;65482;50.240;14.302;2023-08-06T11:30:52;2.42;;;2.22;;
76593;SDS011;65482;50.240;14.302;2023-08-06T11:33:21;2.97;;;1.85;;
76593;SDS011;65482;50.240;14.302;2023-08-06T11:35:57;1.70;;;1.60;;
76593;SDS011;65482;50.240;14.302;2023-08-06T11:38:28;1.92;;;1.83;;
76593;SDS011;65482;50.240;14.302;2023-08-06T11:40:54;3.28;;;2.42;;
76593;SDS011;65482;50.240;14.302;2023-08-06T11:43:20;2.42;;;1.80;;
76593;SDS011;65482;50.240;14.302;2023-08-06T11:45:47;3.97;;;2.10;;
76593;SDS011;65482;50.240;14.302;2023-08-06T11:48:14;4.45;;;2.20;;
76593;SDS011;65482;50.240;14.302;2023-08-06T11:50:39;2.60;;;2.28;;
76593;SDS011;65482;50.240;14.302;2023-08-06T11:53:05;2.22;;;1.95;;
76593;SDS011;65482;50.240;14.302;2023-08-06T11:55:31;2.85;;;2.08;;
76593;SDS011;65482;50.240;14.302;2023-08-06T11:57:57;2.10;;;1.90;;
76593;SDS011;65482;50.240;14.302;2023-08-06T12:00:24;2.10;;;1.90;;
76593;SDS011;65482;50.240;14.302;2023-08-06T12:02:51;2.55;;;2.15;;
76593;SDS011;65482;50.240;14.302;2023-08-06T12:05:28;2.63;;;2.08;;
76593;SDS011;65482;50.240;14.302;2023-08-06T12:07:56;2.30;;;1.95;;
76593;SDS011;65482;50.240;14.302;2023-08-06T12:10:26;1.70;;;1.60;;
76593;SDS011;65482;50.240;14.302;2023-08-06T12:12:54;2.30;;;2.10;;
76593;SDS011;65482;50.240;14.302;2023-08-06T12:15:19;2.58;;;1.92;;
76593;SDS011;65482;50.240;14.302;2023-08-06T12:17:45;1.92;;;1.73;;
76593;SDS011;65482;50.240;14.302;2023-08-06T12:20:11;3.33;;;1.98;;
76593;SDS011;65482;50.240;14.302;2023-08-06T12:22:37;2.63;;;1.75;;
76593;SDS011;65482;50.240;14.302;2023-08-06T12:25:08;2.42;;;1.80;;
76593;SDS011;65482;50.240;14.302;2023-08-06T12:27:37;3.13;;;2.15;;
76593;SDS011;65482;50.240;14.302;2023-08-06T12:30:04;2.45;;;1.80;;
76593;SDS011;65482;50.240;14.302;2023-08-06T12:32:31;3.40;;;1.80;;
76593;SDS011;65482;50.240;14.302;2023-08-06T12:34:56;3.40;;;2.00;;
76593;SDS011;65482;50.240;14.302;2023-08-06T12:37:22;2.60;;;1.80;;
76593;SDS011;65482;50.240;14.302;2023-08-06T12:39:48;7.82;;;2.10;;
76593;SDS011;65482;50.240;14.302;2023-08-06T12:42:15;3.03;;;1.85;;
76593;SDS011;65482;50.240;14.302;2023-08-06T12:44:41;2.00;;;1.80;;
76593;SDS011;65482;50.240;14.302;2023-08-06T12:47:07;1.92;;;1.73;;
76593;SDS011;65482;50.240;14.302;2023-08-06T12:49:32;3.05;;;1.83;;
76593;SDS011;65482;50.240;14.302;2023-08-06T12:51:58;1.95;;;1.60;;
76593;SDS011;65482;50.240;14.302;2023-08-06T12:54:27;2.95;;;1.70;;
76593;SDS011;65482;50.240;14.302;2023-08-06T12:56:54;1.63;;;1.52;;
76593;SDS011;65482;50.240;14.302;2023-08-06T12:59:19;1.67;;;1.40;;
76593;SDS011;65482;50.240;14.302;2023-08-06T13:01:45;1.88;;;1.50;;
76593;SDS011;65482;50.240;14.302;2023-08-06T13:04:11;3.35;;;1.60;;
76593;SDS011;65482;50.240;14.302;2023-08-06T13:06:37;1.80;;;1.60;;
76593;SDS011;65482;50.240;14.302;2023-08-06T13:09:07;3.10;;;1.52;;
76593;SDS011;65482;50.240;14.302;2023-08-06T13:11:34;3.75;;;1.67;;
76593;SDS011;65482;50.240;14.302;2023-08-06T13:14:05;1.90;;;1.50;;
76593;SDS011;65482;50.240;14.302;2023-08-06T13:16:32;2.35;;;1.63;;
76593;SDS011;65482;50.240;14.302;2023-08-06T13:18:58;2.78;;;1.83;;
76593;SDS011;65482;50.240;14.302;2023-08-06T13:21:24;1.98;;;1.60;;
76593;SDS011;65482;50.240;14.302;2023-08-06T13:23:56;2.00;;;1.65;;
76593;SDS011;65482;50.240;14.302;2023-08-06T13:26:22;2.92;;;1.60;;
76593;SDS011;65482;50.240;14.302;2023-08-06T13:28:47;2.95;;;1.48;;
76593;SDS011;65482;50.240;14.302;2023-08-06T13:31:14;2.45;;;1.48;;
76593;SDS011;65482;50.240;14.302;2023-08-06T13:33:40;2.22;;;1.40;;
76593;SDS011;65482;50.240;14.302;2023-08-06T13:36:05;1.73;;;1.58;;
76593;SDS011;65482;50.240;14.302;2023-08-06T13:38:31;1.92;;;1.45;;
76593;SDS011;65482;50.240;14.302;2023-08-06T13:40:56;2.88;;;1.65;;
76593;SDS011;65482;50.240;14.302;2023-08-06T13:43:22;2.03;;;1.63;;
76593;SDS011;65482;50.240;14.302;2023-08-06T13:45:49;1.88;;;1.65;;
76593;SDS011;65482;50.240;14.302;2023-08-06T13:48:15;2.05;;;1.85;;
76593;SDS011;65482;50.240;14.302;2023-08-06T13:50:40;2.30;;;1.80;;
76593;SDS011;65482;50.240;14.302;2023-08-06T13:53:06;2.47;;;1.52;;
76593;SDS011;65482;50.240;14.302;2023-08-06T13:55:31;1.70;;;1.52;;
76593;SDS011;65482;50.240;14.302;2023-08-06T13:57:57;3.00;;;1.42;;
76593;SDS011;65482;50.240;14.302;2023-08-06T14:00:23;2.33;;;1.80;;
76593;SDS011;65482;50.240;14.302;2023-08-06T14:02:48;2.35;;;1.83;;
76593;SDS011;65482;50.240;14.302;2023-08-06T14:05:14;2.83;;;1.52;;
76593;SDS011;65482;50.240;14.302;2023-08-06T14:07:40;2.83;;;1.77;;
76593;SDS011;65482;50.240;14.302;2023-08-06T14:10:06;2.10;;;1.67;;
76593;SDS011;65482;50.240;14.302;2023-08-06T14:12:32;2.75;;;1.83;;
76593;SDS011;65482;50.240;14.302;2023-08-06T14:14:57;2.08;;;1.80;;
76593;SDS011;65482;50.240;14.302;2023-08-06T14:17:24;2.38;;;1.70;;
76593;SDS011;65482;50.240;14.302;2023-08-06T14:19:49;2.08;;;1.75;;
76593;SDS011;65482;50.240;14.302;2023-08-06T14:22:15;1.80;;;1.70;;
76593;SDS011;65482;50.240;14.302;2023-08-06T14:24:40;2.03;;;1.80;;
76593;SDS011;65482;50.240;14.302;2023-08-06T14:27:07;1.70;;;1.60;;
76593;SDS011;65482;50.240;14.302;2023-08-06T14:29:32;1.63;;;1.52;;
76593;SDS011;65482;50.240;14.302;2023-08-06T14:31:58;2.33;;;1.60;;
76593;SDS011;65482;50.240;14.302;2023-08-06T14:34:23;2.10;;;1.90;;
76593;SDS011;65482;50.240;14.302;2023-08-06T14:36:49;2.63;;;1.77;;
76593;SDS011;65482;50.240;14.302;2023-08-06T14:39:15;1.50;;;1.38;;